TAF PAAQ
PAAQ 072320Z 0800/0824 23010G15KT 6SM -SN SCT008 OVC030 TEMPO 0800/0804 1/4SM SN FZFG OVC008 FM080400 VRB03KT 4SM -SN VCFG OVC010 FM081000 VRB03KT 3SM BR BKN010=
METAR PAAQ
WC PAAQ
WS PAAQ
WV PAAQ